createdAt,value
2019-05-05T00:03:11.922Z,4.90
2019-05-05T00:06:19.530Z,4.90
2019-05-05T00:09:26.981Z,4.80
2019-05-05T00:12:52.219Z,4.80
2019-05-05T00:16:27.508Z,4.70
2019-05-05T00:19:35.898Z,4.60
2019-05-05T00:22:45.419Z,4.60
2019-05-05T00:25:52.778Z,4.50
2019-05-05T00:29:00.281Z,4.50
2019-05-05T00:32:08.000Z,4.50
2019-05-05T00:35:17.089Z,4.50
2019-05-05T00:38:24.970Z,4.50
2019-05-05T00:41:34.501Z,4.50
2019-05-05T00:44:41.729Z,4.40
2019-05-05T00:47:54.547Z,4.40
2019-05-05T00:51:04.659Z,4.40
2019-05-05T00:54:12.109Z,4.40
2019-05-05T00:57:19.585Z,4.40
2019-05-05T01:00:50.295Z,4.40
2019-05-05T01:03:57.893Z,4.30
2019-05-05T01:07:05.410Z,4.30
2019-05-05T01:10:14.294Z,4.20
2019-05-05T01:13:21.902Z,4.20
2019-05-05T01:16:29.355Z,4.10
2019-05-05T01:19:36.775Z,4.10
2019-05-05T01:22:44.837Z,4.10
2019-05-05T01:25:54.264Z,4.00
2019-05-05T01:29:01.443Z,3.90
2019-05-05T01:32:12.452Z,3.90
2019-05-05T01:35:19.895Z,3.80
2019-05-05T01:38:34.227Z,3.70
2019-05-05T01:41:46.965Z,3.70
2019-05-05T01:44:55.241Z,3.70
2019-05-05T01:48:04.923Z,3.70
2019-05-05T01:51:14.337Z,3.60
2019-05-05T01:54:22.118Z,3.60
2019-05-05T01:57:29.560Z,3.60
2019-05-05T02:00:37.063Z,3.50
2019-05-05T02:03:44.619Z,3.50
2019-05-05T02:06:52.156Z,3.40
2019-05-05T02:09:59.899Z,3.40
2019-05-05T02:13:08.652Z,3.30
2019-05-05T02:16:16.261Z,3.30
2019-05-05T02:19:25.016Z,3.30
2019-05-05T02:22:32.713Z,3.30
2019-05-05T02:25:40.311Z,3.20
2019-05-05T02:29:06.715Z,3.20
2019-05-05T02:32:31.699Z,3.10
2019-05-05T02:35:39.178Z,3.10
2019-05-05T02:38:48.417Z,3.10
2019-05-05T02:41:57.342Z,3.00
2019-05-05T02:45:07.279Z,3.00
2019-05-05T02:48:16.239Z,3.00
2019-05-05T02:51:26.065Z,3.00
2019-05-05T02:54:35.871Z,2.90
2019-05-05T02:57:43.962Z,2.90
2019-05-05T03:01:10.581Z,3.00
2019-05-05T03:04:19.193Z,2.90
2019-05-05T03:07:28.461Z,2.90
2019-05-05T03:10:36.633Z,3.00
2019-05-05T03:13:46.771Z,3.00
2019-05-05T03:16:55.025Z,2.90
2019-05-05T03:20:04.102Z,2.90
2019-05-05T03:23:13.662Z,2.90
2019-05-05T03:26:23.387Z,2.90
2019-05-05T03:29:31.101Z,2.90
2019-05-05T03:32:38.644Z,2.90
2019-05-05T03:35:47.109Z,2.90
2019-05-05T03:38:55.899Z,3.00
2019-05-05T03:42:33.784Z,2.90
2019-05-05T03:45:50.299Z,2.90
2019-05-05T03:48:57.972Z,2.90
2019-05-05T03:52:05.668Z,3.00
2019-05-05T03:55:13.842Z,2.90
2019-05-05T03:58:21.503Z,3.00
2019-05-05T04:02:07.833Z,3.00
2019-05-05T04:05:40.111Z,3.00
2019-05-05T04:08:47.782Z,3.00
2019-05-05T04:11:55.409Z,3.00
2019-05-05T04:15:03.742Z,3.00
2019-05-05T04:18:19.485Z,3.10
2019-05-05T04:21:33.582Z,3.10
2019-05-05T04:24:36.308Z,3.00
2019-05-05T04:27:44.500Z,3.00
2019-05-05T04:30:53.660Z,3.00
2019-05-05T04:34:01.197Z,3.00
2019-05-05T04:37:08.859Z,3.00
2019-05-05T04:40:16.475Z,3.00
2019-05-05T04:43:24.646Z,3.10
2019-05-05T04:46:33.847Z,3.00
2019-05-05T04:49:47.231Z,3.00
2019-05-05T04:52:56.629Z,3.00
2019-05-05T04:56:04.276Z,3.00
2019-05-05T04:59:14.290Z,3.00
2019-05-05T05:02:34.909Z,3.00
2019-05-05T05:06:00.338Z,3.00
2019-05-05T05:09:08.377Z,3.10
2019-05-05T05:12:17.560Z,3.10
2019-05-05T05:15:25.105Z,3.10
2019-05-05T05:18:34.329Z,3.10
2019-05-05T05:21:43.712Z,3.10
2019-05-05T05:24:51.317Z,3.10
2019-05-05T05:27:58.930Z,3.10
2019-05-05T05:31:06.394Z,3.10
2019-05-05T05:34:14.803Z,3.10
2019-05-05T05:37:24.007Z,3.20
2019-05-05T05:40:50.591Z,3.20
2019-05-05T05:44:08.330Z,3.20
2019-05-05T05:47:30.017Z,3.30
2019-05-05T05:50:44.202Z,3.30
2019-05-05T05:53:54.359Z,3.30
2019-05-05T05:57:04.160Z,3.30
2019-05-05T06:00:11.617Z,3.40
2019-05-05T06:03:19.433Z,3.30
2019-05-05T06:06:27.214Z,3.40
2019-05-05T06:09:34.769Z,3.40
2019-05-05T06:12:42.304Z,3.40
2019-05-05T06:15:50.543Z,3.40
2019-05-05T06:18:58.098Z,3.40
2019-05-05T06:22:05.541Z,3.40
2019-05-05T06:25:15.921Z,3.50
2019-05-05T06:28:23.644Z,3.50
2019-05-05T06:31:31.308Z,3.50
2019-05-05T06:34:38.787Z,3.50
2019-05-05T06:37:55.577Z,3.60
2019-05-05T06:41:23.717Z,3.60
2019-05-05T06:44:35.295Z,3.60
2019-05-05T06:47:44.499Z,3.60
2019-05-05T06:50:54.296Z,3.60
2019-05-05T06:54:01.239Z,3.60
2019-05-05T06:57:08.701Z,3.60
2019-05-05T07:00:16.177Z,3.70
2019-05-05T07:03:24.297Z,3.70
2019-05-05T07:06:31.878Z,3.80
2019-05-05T07:09:39.483Z,3.80
2019-05-05T07:12:46.913Z,3.90
2019-05-05T07:15:54.614Z,3.90
2019-05-05T07:19:04.230Z,3.90
2019-05-05T07:22:13.862Z,3.90
2019-05-05T07:25:20.709Z,3.90
2019-05-05T07:28:28.339Z,3.90
2019-05-05T07:31:35.804Z,3.90
2019-05-05T07:35:00.909Z,3.90
2019-05-05T07:38:08.788Z,4.00
2019-05-05T07:41:16.306Z,4.00
2019-05-05T07:44:29.298Z,4.00
2019-05-05T07:47:34.226Z,4.00
2019-05-05T07:50:43.651Z,4.00
2019-05-05T07:53:50.940Z,4.10
2019-05-05T07:56:58.385Z,4.20
2019-05-05T08:00:06.586Z,4.30
2019-05-05T08:03:14.468Z,4.40
2019-05-05T08:06:23.698Z,4.40
2019-05-05T08:09:31.464Z,4.60
2019-05-05T08:12:39.160Z,4.70
2019-05-05T08:15:59.032Z,4.80
2019-05-05T08:19:25.318Z,4.80
2019-05-05T08:22:33.988Z,4.90
2019-05-05T08:25:54.005Z,4.90
2019-05-05T08:29:23.932Z,4.90
2019-05-05T08:32:35.669Z,4.90
2019-05-05T08:35:44.832Z,4.70
2019-05-05T08:38:54.603Z,4.70
2019-05-05T08:42:04.126Z,4.70
2019-05-05T08:45:13.686Z,4.70
2019-05-05T08:48:20.550Z,4.80
2019-05-05T08:51:28.036Z,4.80
2019-05-05T08:54:35.470Z,4.80
2019-05-05T08:57:44.644Z,4.80
2019-05-05T09:00:53.644Z,4.80
2019-05-05T09:04:01.224Z,4.80
2019-05-05T09:07:08.958Z,4.80
2019-05-05T09:10:16.746Z,4.70
2019-05-05T09:13:24.746Z,4.80
2019-05-05T09:16:33.586Z,4.80
2019-05-05T09:19:41.070Z,4.90
2019-05-05T09:22:48.611Z,5.00
2019-05-05T09:26:07.584Z,5.20
2019-05-05T09:29:25.176Z,5.30
2019-05-05T09:32:34.405Z,5.40
2019-05-05T09:35:43.698Z,5.50
2019-05-05T09:38:54.081Z,5.50
2019-05-05T09:42:03.944Z,5.50
2019-05-05T09:45:10.795Z,5.50
2019-05-05T09:48:18.278Z,5.50
2019-05-05T09:51:25.746Z,5.50
2019-05-05T09:54:34.559Z,5.40
2019-05-05T09:57:43.815Z,5.40
2019-05-05T10:00:54.566Z,5.50
2019-05-05T10:04:11.173Z,5.60
2019-05-05T10:07:18.664Z,5.70
2019-05-05T10:10:26.142Z,5.80
2019-05-05T10:13:33.856Z,6.00
2019-05-05T10:16:42.324Z,6.20
2019-05-05T10:19:49.952Z,6.20
2019-05-05T10:22:57.608Z,6.20
2019-05-05T10:26:08.148Z,6.20
2019-05-05T10:29:15.753Z,6.20
2019-05-05T10:32:24.516Z,6.20
2019-05-05T10:35:34.262Z,6.20
2019-05-05T10:38:44.561Z,6.30
2019-05-05T10:41:53.503Z,6.30
2019-05-05T10:45:01.255Z,6.20
2019-05-05T10:48:10.107Z,6.30
2019-05-05T10:51:17.747Z,6.50
2019-05-05T10:54:25.204Z,6.70
2019-05-05T10:57:34.120Z,7.00
2019-05-05T11:00:47.638Z,7.30
2019-05-05T11:03:55.099Z,7.60
2019-05-05T11:07:04.181Z,7.70
2019-05-05T11:10:14.145Z,7.80
2019-05-05T11:13:23.874Z,7.90
2019-05-05T11:16:32.240Z,7.80
2019-05-05T11:19:39.668Z,7.90
2019-05-05T11:22:47.120Z,7.90
2019-05-05T11:25:54.642Z,7.90
2019-05-05T11:29:04.131Z,7.90
2019-05-05T11:32:17.689Z,7.90
2019-05-05T11:35:26.629Z,7.80
2019-05-05T11:38:34.126Z,7.80
2019-05-05T11:41:43.885Z,7.70
2019-05-05T11:44:52.442Z,7.80
2019-05-05T11:48:00.572Z,8.00
2019-05-05T11:51:08.455Z,8.10
2019-05-05T11:54:16.060Z,8.20
2019-05-05T11:57:23.961Z,8.30
2019-05-05T12:00:31.958Z,8.30
2019-05-05T12:03:39.514Z,8.50
2019-05-05T12:06:47.188Z,8.70
2019-05-05T12:09:57.446Z,8.90
2019-05-05T12:13:05.586Z,8.80
2019-05-05T12:16:30.062Z,8.90
2019-05-05T12:19:38.574Z,9.00
2019-05-05T12:22:46.063Z,8.90
2019-05-05T12:26:24.439Z,9.10
2019-05-05T12:29:36.309Z,9.20
2019-05-05T12:32:45.388Z,9.40
2019-05-05T12:35:53.950Z,9.40
2019-05-05T12:39:04.532Z,9.30
2019-05-05T12:42:14.157Z,9.40
2019-05-05T12:45:24.329Z,9.50
2019-05-05T12:48:34.688Z,9.50
2019-05-05T12:51:43.557Z,9.50
2019-05-05T12:54:51.211Z,9.50
2019-05-05T12:57:58.791Z,9.40
2019-05-05T13:01:10.784Z,9.50
2019-05-05T13:04:18.520Z,9.40
2019-05-05T13:07:26.178Z,9.60
2019-05-05T13:10:33.819Z,9.60
2019-05-05T13:13:41.341Z,9.70
2019-05-05T13:16:52.957Z,9.90
2019-05-05T13:20:06.769Z,10.00
2019-05-05T13:23:42.156Z,10.00
2019-05-05T13:26:54.984Z,10.10
2019-05-05T13:30:04.330Z,10.10
2019-05-05T13:33:14.037Z,10.20
2019-05-05T13:36:21.252Z,10.30
2019-05-05T13:39:28.899Z,10.10
2019-05-05T13:42:36.701Z,10.10
2019-05-05T13:45:57.390Z,10.10
2019-05-05T13:49:36.017Z,10.10
2019-05-05T13:52:44.212Z,10.00
2019-05-05T13:55:51.933Z,10.00
2019-05-05T13:58:59.482Z,9.90
2019-05-05T14:02:07.457Z,10.00
2019-05-05T14:05:15.081Z,9.90
2019-05-05T14:08:23.742Z,10.00
2019-05-05T14:11:33.955Z,9.90
2019-05-05T14:14:41.730Z,9.80
2019-05-05T14:17:49.737Z,9.90
2019-05-05T14:20:57.578Z,9.90
2019-05-05T14:24:18.604Z,9.70
2019-05-05T14:27:26.088Z,9.70
2019-05-05T14:30:40.905Z,9.70
2019-05-05T14:33:51.210Z,9.50
2019-05-05T14:37:16.661Z,9.40
2019-05-05T14:40:24.096Z,9.40
2019-05-05T14:43:31.707Z,9.30
2019-05-05T14:46:39.561Z,9.20
2019-05-05T14:49:47.187Z,9.20
2019-05-05T14:52:54.745Z,9.20
2019-05-05T14:56:04.471Z,9.20
2019-05-05T14:59:11.769Z,9.30
2019-05-05T15:02:19.321Z,9.40
2019-05-05T15:05:47.646Z,9.40
2019-05-05T15:09:16.941Z,9.40
2019-05-05T15:12:34.047Z,9.40
2019-05-05T15:15:41.730Z,9.40
2019-05-05T15:18:49.360Z,9.50
2019-05-05T15:21:57.067Z,9.60
2019-05-05T15:25:05.869Z,9.70
2019-05-05T15:28:14.177Z,9.60
2019-05-05T15:31:23.659Z,9.50
2019-05-05T15:34:30.808Z,9.50
2019-05-05T15:37:38.243Z,9.40
2019-05-05T15:40:48.071Z,9.40
2019-05-05T15:43:55.128Z,9.30
2019-05-05T15:47:02.641Z,9.30
2019-05-05T15:50:10.399Z,9.20
2019-05-05T15:53:17.946Z,9.10
2019-05-05T15:56:25.426Z,9.10
2019-05-05T15:59:34.302Z,9.10
2019-05-05T16:02:43.980Z,9.00
2019-05-05T16:05:51.009Z,9.10
2019-05-05T16:08:58.542Z,9.10
2019-05-05T16:12:06.217Z,9.00
2019-05-05T16:15:30.903Z,9.00
2019-05-05T16:19:05.639Z,9.00
2019-05-05T16:22:09.617Z,9.00
2019-05-05T16:25:17.531Z,8.80
2019-05-05T16:28:25.217Z,8.80
2019-05-05T16:31:34.222Z,8.80
2019-05-05T16:34:42.169Z,8.90
2019-05-05T16:37:49.695Z,8.80
2019-05-05T16:40:57.249Z,8.70
2019-05-05T16:44:05.140Z,8.70
2019-05-05T16:47:13.629Z,8.70
2019-05-05T16:50:25.031Z,8.70
2019-05-05T16:53:36.188Z,8.80
2019-05-05T16:56:44.104Z,8.70
2019-05-05T16:59:53.526Z,8.70
2019-05-05T17:03:00.778Z,8.60
2019-05-05T17:06:08.345Z,8.60
2019-05-05T17:09:15.787Z,8.50
2019-05-05T17:12:24.348Z,8.50
2019-05-05T17:15:50.074Z,8.50
2019-05-05T17:19:15.685Z,8.40
2019-05-05T17:22:54.590Z,8.40
2019-05-05T17:26:02.280Z,8.40
2019-05-05T17:29:09.767Z,8.30
2019-05-05T17:32:18.385Z,8.30
2019-05-05T17:35:25.971Z,8.20
2019-05-05T17:38:34.096Z,8.20
2019-05-05T17:42:08.656Z,8.10
2019-05-05T17:45:31.513Z,8.10
2019-05-05T17:49:10.087Z,8.10
2019-05-05T17:52:26.690Z,8.00
2019-05-05T17:55:36.444Z,8.00
2019-05-05T17:58:44.467Z,7.90
2019-05-05T18:01:53.987Z,7.90
2019-05-05T18:05:01.639Z,7.90
2019-05-05T18:08:29.268Z,7.90
2019-05-05T18:11:54.156Z,7.80
2019-05-05T18:15:04.592Z,7.80
2019-05-05T18:18:13.797Z,7.80
2019-05-05T18:21:21.107Z,7.70
2019-05-05T18:24:28.540Z,7.70
2019-05-05T18:27:36.073Z,7.70
2019-05-05T18:30:44.373Z,7.60
2019-05-05T18:33:51.918Z,7.60
2019-05-05T18:36:59.557Z,7.60
2019-05-05T18:40:07.101Z,7.60
2019-05-05T18:43:19.713Z,7.50
2019-05-05T18:46:27.219Z,7.50
2019-05-05T18:49:34.785Z,7.60
2019-05-05T18:52:45.067Z,7.50
2019-05-05T18:55:51.505Z,7.50
2019-05-05T18:58:59.049Z,7.50
2019-05-05T19:02:16.518Z,7.50
2019-05-05T19:05:43.908Z,7.50
2019-05-05T19:08:55.126Z,7.50
2019-05-05T19:12:03.992Z,7.50
2019-05-05T19:15:13.624Z,7.60
2019-05-05T19:18:21.343Z,7.60
2019-05-05T19:21:35.951Z,7.60
2019-05-05T19:24:44.851Z,7.50
2019-05-05T19:27:53.668Z,7.50
2019-05-05T19:31:01.577Z,7.50
2019-05-05T19:34:09.117Z,7.50
2019-05-05T19:37:16.641Z,7.40
2019-05-05T19:40:24.400Z,7.40
2019-05-05T19:43:34.006Z,7.40
2019-05-05T19:46:49.661Z,7.40
2019-05-05T19:50:02.839Z,7.40
2019-05-05T19:53:35.211Z,7.40
2019-05-05T19:56:44.746Z,7.40
2019-05-05T19:59:54.156Z,7.40
2019-05-05T20:03:04.959Z,7.40
2019-05-05T20:06:10.657Z,7.30
2019-05-05T20:09:18.297Z,7.30
2019-05-05T20:12:25.882Z,7.30
2019-05-05T20:15:39.503Z,7.30
2019-05-05T20:18:50.117Z,7.30
2019-05-05T20:21:56.349Z,7.20
2019-05-05T20:25:04.418Z,7.20
2019-05-05T20:28:14.428Z,7.20
2019-05-05T20:31:23.708Z,7.10
2019-05-05T20:34:48.383Z,7.10
2019-05-05T20:38:00.926Z,7.10
2019-05-05T20:41:14.291Z,7.00
2019-05-05T20:44:22.035Z,7.00
2019-05-05T20:47:29.793Z,6.90
2019-05-05T20:50:37.206Z,6.80
2019-05-05T20:53:48.727Z,6.90
2019-05-05T20:56:54.797Z,6.80
2019-05-05T21:00:02.264Z,6.80
2019-05-05T21:03:11.463Z,6.80
2019-05-05T21:06:18.868Z,6.80
2019-05-05T21:09:26.397Z,6.80
2019-05-05T21:12:42.190Z,6.80
2019-05-05T21:15:45.061Z,6.80
2019-05-05T21:18:53.930Z,6.80
2019-05-05T21:22:16.035Z,6.90
2019-05-05T21:25:26.353Z,6.80
2019-05-05T21:28:33.773Z,6.80
2019-05-05T21:31:41.177Z,6.80
2019-05-05T21:34:48.608Z,6.90
2019-05-05T21:37:56.027Z,6.90
2019-05-05T21:41:04.209Z,6.90
2019-05-05T21:44:11.859Z,6.90
2019-05-05T21:47:19.279Z,6.90
2019-05-05T21:50:34.921Z,6.90
2019-05-05T21:53:53.325Z,6.90
2019-05-05T21:57:18.279Z,6.80
2019-05-05T22:00:44.517Z,6.80
2019-05-05T22:03:53.824Z,6.90
2019-05-05T22:07:03.588Z,6.90
2019-05-05T22:10:10.701Z,6.80
2019-05-05T22:13:18.592Z,6.90
2019-05-05T22:16:26.084Z,6.90
2019-05-05T22:19:36.487Z,6.90
2019-05-05T22:22:45.109Z,6.90
2019-05-05T22:25:54.356Z,6.90
2019-05-05T22:29:01.595Z,6.90
2019-05-05T22:32:09.031Z,6.90
2019-05-05T22:35:16.717Z,6.90
2019-05-05T22:38:24.629Z,6.80
2019-05-05T22:41:33.739Z,6.80
2019-05-05T22:44:41.435Z,6.80
2019-05-05T22:47:48.857Z,6.80
2019-05-05T22:50:56.595Z,6.80
2019-05-05T22:54:04.050Z,6.80
2019-05-05T22:57:13.882Z,6.80
2019-05-05T23:00:28.629Z,6.80
2019-05-05T23:03:40.675Z,6.80
2019-05-05T23:06:54.080Z,6.80
2019-05-05T23:10:04.457Z,6.70
2019-05-05T23:13:13.446Z,6.70
2019-05-05T23:16:26.988Z,6.70
2019-05-05T23:19:39.993Z,6.70
2019-05-05T23:22:54.832Z,6.60
2019-05-05T23:26:03.859Z,6.60
2019-05-05T23:29:11.506Z,6.60
2019-05-05T23:32:18.969Z,6.60
2019-05-05T23:35:26.478Z,6.50
2019-05-05T23:38:34.778Z,6.50
2019-05-05T23:41:43.325Z,6.50
2019-05-05T23:44:50.761Z,6.50
2019-05-05T23:47:58.178Z,6.50
2019-05-05T23:51:05.729Z,6.50
2019-05-05T23:54:13.655Z,6.50
2019-05-05T23:57:24.123Z,6.50
